Airfield :
LOGIN :

Register | Disclaimer

   EN    FR    IT 

 










Legend :    VFR   Marginal VFR   IFR   Intensive IFR   Very Intensive IFR
Visi :
Ceiling :
>= 8 km
>= 3000ft
5 to 8 km
1000 to 3000 ft
1500m to 5 km
500 to 1000 ft
800 to 1500m
200 to 500 ft
< 800m
< 200 ft
Symbols :   Thunderstorms  Fog  Heavy snow  Heavy precipitations  Wind > 20 kt
SIGMETs :     Misc.  Thunderstorms  Icing  Turbulence  Mountain Waves  Volcanic Ashes







- Airport Elevation : 1234 ft
- IATA code : LUX


ELLX - Luxembourg Findel

CURRENT METAR :
  • 190950Z 26007KT 240V300 9000 SCT007 BKN022 06/04 Q1021 NOSIG

EXPIRED METARs :
  • 190920Z 25006KT 210V270 8000 FEW016 BKN095 05/04 Q1021 NOSIG
  • 190850Z 24004KT 6000 NSC 05/04 Q1020 NOSIG
  • 190820Z 24003KT 210V270 6000 FEW037 BKN058 04/03 Q1020 NOSIG
  • 190750Z 25004KT 220V280 6000 -RA FEW028 SCT045 04/03 Q1020 NOSIG
  • 190720Z 28002KT 8000 -RA FEW016 BKN037 04/03 Q1019 TEMPO BKN009

TAF AMD TAF ELLX
Valid from the 19 at 06:00 until the 20 at 12:00 UTC


190600Z 1906/2012 22007KT 9999 BKN030
TEMPO 1906/1909 BKN012
PROB30
TEMPO 1907/1909 BKN009
BECMG 1915/1918 28006KT
TEMPO 2003/2010 0800 FG BKN002
ATIS : +352 4798 27300
Met : +352 4798 27010 / 27050
No reported NOTAMs for that airfield.



MET'MAP, your aeronautical weather chart ! - Copyright ORBIFLY December 2007 - Disclaimer

ORBIFLY MET'MAP TEAM :

Programming & Development : Alexandra Zaïnal
Concept & Development : Baudouin d'Aumeries
Co-Development & Prog : Marc-Olivier Méhu
Technical & hardware support : Manuel Goepfert

Contact : metmap@orbifly.com




SOURCES & CREDITS :

   NOAA